Chester, Texas
Current Conditions -  °F | °C
As of 12:53 PM on Monday 22 Dec 2014 (Local Time) from KLFK Reporting Station
Few Clouds Few Clouds  
Wind Chill: 71°   Ceiling: Unl
Heat Index: 71°   Visibility: 10mi
Dew Point: 56°   Wind: 18mph
Humidity: 59%   Direction: 200°SSW
Pressure: 29.62"   Gusts: 24mph
Location:  30.93°N, 94.6°W
Report Text: KLFK 221853Z AUTO 20016G21KT 10SM FEW026 22/13 A2962 RMK AO2 SLP026 T02170133
Loading
Personal Weather Stations






























Interactive Weather Map New forecast layout! Learn more

10-Day Weather Forecast

Advertisements
Track Severe Weather on mobile